Time;durP1;ratioP1;P1;durP2;ratioP2;P2;SDS_P1;SDS_P2;PMS_P1;PMS_P2;Temp;Humidity;BMP_temperature;BMP_pressure;BME280_temperature;BME280_humidity;BME280_pressure;Samples;Min_cycle;Max_cycle;Signal;HPM_P1;HPM_P2
2022/03/05 00:00:47;;;;;;;22.43;11.43;;;2.50;99.90;;;;;;6205227;23;20185;-76
2022/03/05 00:03:14;;;;;;;21.63;12.43;;;2.40;99.90;;;;;;6205426;23;20428;-76
2022/03/05 00:05:41;;;;;;;20.53;11.67;;;2.40;99.90;;;;;;6204049;23;20170;-75
2022/03/05 00:08:09;;;;;;;22.00;13.33;;;2.40;99.90;;;;;;6205298;23;20566;-75
2022/03/05 00:10:35;;;;;;;22.00;12.50;;;2.30;99.90;;;;;;6205586;23;20240;-75
2022/03/05 00:13:04;;;;;;;23.00;12.70;;;2.30;99.90;;;;;;6204829;23;20198;-75
2022/03/05 00:15:31;;;;;;;20.53;12.93;;;2.30;99.90;;;;;;6205729;23;20178;-76
2022/03/05 00:17:58;;;;;;;20.43;11.73;;;2.20;99.90;;;;;;6205563;23;20181;-75
2022/03/05 00:20:25;;;;;;;22.53;12.00;;;2.20;99.90;;;;;;6204716;23;20177;-76
2022/03/05 00:22:53;;;;;;;24.73;13.37;;;2.20;99.90;;;;;;6205070;23;20418;-74
2022/03/05 00:25:20;;;;;;;20.70;12.27;;;2.20;99.90;;;;;;6205137;23;20197;-75
2022/03/05 00:27:47;;;;;;;20.27;11.50;;;2.10;99.90;;;;;;6205760;23;20216;-75
2022/03/05 00:30:15;;;;;;;25.23;13.23;;;2.10;99.90;;;;;;6204799;23;20174;-74
2022/03/05 00:32:42;;;;;;;20.33;12.60;;;2.10;99.90;;;;;;6205892;23;20402;-75
2022/03/05 00:35:10;;;;;;;25.33;13.27;;;2.00;99.90;;;;;;6204655;23;20638;-76
2022/03/05 00:37:37;;;;;;;20.37;12.17;;;2.00;99.90;;;;;;6205258;23;20207;-74
2022/03/05 00:40:05;;;;;;;25.13;13.00;;;2.00;99.90;;;;;;6206362;23;20178;-76
2022/03/05 00:42:32;;;;;;;22.97;12.60;;;2.00;99.90;;;;;;6204771;23;20174;-75
2022/03/05 00:44:59;;;;;;;22.10;12.50;;;2.00;99.90;;;;;;6205551;23;20269;-75
2022/03/05 00:47:27;;;;;;;23.43;14.00;;;1.90;99.90;;;;;;6205425;23;20174;-75
2022/03/05 00:49:54;;;;;;;24.77;13.90;;;1.90;99.90;;;;;;6205083;23;20178;-76
2022/03/05 00:52:22;;;;;;;22.83;12.43;;;1.90;99.90;;;;;;6204564;23;20190;-76
2022/03/05 00:54:49;;;;;;;24.60;13.27;;;1.90;99.90;;;;;;6204542;23;20826;-75
2022/03/05 00:57:16;;;;;;;23.53;12.83;;;1.90;99.90;;;;;;6205204;23;20170;-75
2022/03/05 00:59:43;;;;;;;21.97;12.07;;;1.90;99.90;;;;;;6205079;23;20178;-79
2022/03/05 01:02:10;;;;;;;21.00;12.50;;;1.90;99.90;;;;;;6205197;23;20244;-74
2022/03/05 01:04:38;;;;;;;21.70;13.30;;;1.90;99.90;;;;;;6205288;23;20560;-75
2022/03/05 01:07:05;;;;;;;24.17;12.87;;;1.90;99.90;;;;;;6204449;23;20800;-78
2022/03/05 01:09:32;;;;;;;22.90;13.37;;;1.90;99.90;;;;;;6203354;23;20210;-75
2022/03/05 01:11:58;;;;;;;23.63;13.27;;;1.80;99.90;;;;;;6205649;23;20198;-76
2022/03/05 01:14:25;;;;;;;21.37;12.90;;;1.80;99.90;;;;;;6204953;23;20177;-74
2022/03/05 01:16:52;;;;;;;21.73;12.67;;;1.80;99.90;;;;;;6204338;23;20516;-74
2022/03/05 01:19:19;;;;;;;21.03;12.53;;;1.80;99.90;;;;;;6205093;23;20178;-74
2022/03/05 01:21:47;;;;;;;23.17;12.83;;;1.80;99.90;;;;;;6204674;23;20206;-76
2022/03/05 01:24:14;;;;;;;21.80;12.20;;;1.80;99.90;;;;;;6203975;23;20201;-75
2022/03/05 01:26:40;;;;;;;22.47;12.83;;;1.80;99.90;;;;;;6205999;23;20846;-74
2022/03/05 01:29:07;;;;;;;22.77;13.10;;;1.70;99.90;;;;;;6204947;23;20178;-75
2022/03/05 01:31:34;;;;;;;21.57;12.10;;;1.70;99.90;;;;;;6204208;23;20196;-75
2022/03/05 01:34:00;;;;;;;20.43;12.60;;;1.70;99.90;;;;;;6205139;23;20708;-74
2022/03/05 01:36:27;;;;;;;22.37;12.47;;;1.70;99.90;;;;;;6204787;23;20443;-75
2022/03/05 01:38:55;;;;;;;21.10;12.20;;;1.70;99.90;;;;;;6204171;23;20575;-74
2022/03/05 01:41:22;;;;;;;26.60;14.17;;;1.70;99.90;;;;;;6204973;23;20177;-75
2022/03/05 01:43:51;;;;;;;26.57;13.67;;;1.70;99.90;;;;;;6205945;23;20198;-76
2022/03/05 01:46:28;;;;;;;25.77;12.97;;;1.60;99.90;;;;;;6205437;23;20205;-74
2022/03/05 01:48:55;;;;;;;24.80;13.70;;;1.60;99.90;;;;;;6207369;23;20172;-75
2022/03/05 01:51:22;;;;;;;25.13;13.37;;;1.60;99.90;;;;;;6205916;23;20174;-74
2022/03/05 01:53:49;;;;;;;25.00;12.70;;;1.60;99.90;;;;;;6206999;23;20461;-75
2022/03/05 01:56:17;;;;;;;23.73;13.03;;;1.60;99.90;;;;;;6207514;23;20174;-75
2022/03/05 01:58:46;;;;;;;26.07;13.93;;;1.60;99.90;;;;;;6207041;23;20762;-75
2022/03/05 02:01:12;;;;;;;24.50;12.80;;;1.50;99.90;;;;;;6207047;23;20174;-75
2022/03/05 02:03:40;;;;;;;24.63;12.67;;;1.50;99.90;;;;;;6206641;23;20177;-75
2022/03/05 02:06:07;;;;;;;25.67;12.70;;;1.50;99.90;;;;;;6206830;23;20269;-76
2022/03/05 02:08:34;;;;;;;20.67;12.03;;;1.50;99.90;;;;;;6207212;23;20185;-76
2022/03/05 02:11:01;;;;;;;21.70;13.40;;;1.50;99.90;;;;;;6207631;23;20346;-76
2022/03/05 02:13:29;;;;;;;24.50;13.37;;;1.40;99.90;;;;;;6205262;23;20198;-81
2022/03/05 02:15:56;;;;;;;25.37;13.20;;;1.40;99.90;;;;;;6207540;23;20185;-76
2022/03/05 02:18:23;;;;;;;21.93;13.20;;;1.40;99.90;;;;;;6206800;23;20210;-76
2022/03/05 02:20:51;;;;;;;21.03;13.03;;;1.40;99.90;;;;;;6206351;23;20170;-75
2022/03/05 02:23:18;;;;;;;24.97;13.20;;;1.30;99.90;;;;;;6206932;23;20201;-75
2022/03/05 02:25:53;;;;;;;21.33;12.50;;;1.30;99.90;;;;;;6206857;23;20232;-75
2022/03/05 02:28:20;;;;;;;23.07;12.73;;;1.30;99.90;;;;;;6206063;23;20275;-74
2022/03/05 02:30:47;;;;;;;24.80;12.20;;;1.30;99.90;;;;;;6207212;23;20586;-76
2022/03/05 02:33:14;;;;;;;26.00;13.03;;;1.30;99.90;;;;;;6205902;23;20209;-75
2022/03/05 02:35:43;;;;;;;26.03;13.77;;;1.30;99.90;;;;;;6207309;23;20567;-76
2022/03/05 02:38:12;;;;;;;25.47;13.33;;;1.30;99.90;;;;;;6206560;23;20170;-75
2022/03/05 02:40:40;;;;;;;26.17;12.77;;;1.30;99.90;;;;;;6206824;23;20201;-76
2022/03/05 02:43:07;;;;;;;24.70;13.33;;;1.20;99.90;;;;;;6207272;23;20261;-75
2022/03/05 02:45:34;;;;;;;27.70;14.13;;;1.20;99.90;;;;;;6205777;23;20171;-75
2022/03/05 02:48:02;;;;;;;23.63;13.30;;;1.20;99.90;;;;;;6205974;23;20581;-74
2022/03/05 02:50:30;;;;;;;26.60;13.33;;;1.10;99.90;;;;;;6206615;23;20240;-76
2022/03/05 02:52:57;;;;;;;24.33;12.80;;;1.10;99.90;;;;;;6206308;23;20194;-75
2022/03/05 02:55:25;;;;;;;26.37;14.63;;;1.10;99.90;;;;;;6205644;23;20178;-75
2022/03/05 02:57:52;;;;;;;26.10;13.33;;;1.10;99.90;;;;;;6206330;23;20814;-74
2022/03/05 03:00:19;;;;;;;27.57;14.73;;;1.00;99.90;;;;;;6206509;23;20181;-75
2022/03/05 03:02:46;;;;;;;22.77;13.40;;;1.00;99.90;;;;;;6206061;23;20174;-76
2022/03/05 03:05:13;;;;;;;26.17;14.67;;;1.00;99.90;;;;;;6206153;23;20174;-76
2022/03/05 03:07:40;;;;;;;24.67;14.70;;;1.00;99.90;;;;;;6206879;23;20494;-75
2022/03/05 03:10:08;;;;;;;27.00;13.50;;;0.90;99.90;;;;;;6205807;23;20178;-75
2022/03/05 03:12:37;;;;;;;23.30;12.83;;;1.00;99.90;;;;;;6205749;23;20216;-74
2022/03/05 03:15:05;;;;;;;24.03;12.43;;;0.90;99.90;;;;;;6206333;23;20413;-75
2022/03/05 03:17:40;;;;;;;25.10;13.77;;;0.90;99.90;;;;;;6205411;23;20189;-75
2022/03/05 03:20:07;;;;;;;23.83;12.73;;;0.90;99.90;;;;;;6206674;23;20170;-75
2022/03/05 03:22:34;;;;;;;23.17;13.40;;;0.80;99.90;;;;;;6204993;23;20202;-75
2022/03/05 03:25:01;;;;;;;22.93;12.23;;;0.80;99.90;;;;;;6205997;23;20186;-75
2022/03/05 03:27:27;;;;;;;26.03;15.60;;;0.70;99.90;;;;;;6205358;23;20438;-75
2022/03/05 03:29:55;;;;;;;22.97;14.37;;;0.70;99.90;;;;;;6205822;23;20181;-75
2022/03/05 03:32:22;;;;;;;26.70;14.77;;;0.70;99.90;;;;;;6204998;23;20869;-76
2022/03/05 03:34:49;;;;;;;27.53;13.30;;;0.70;99.90;;;;;;6206184;23;20174;-75
2022/03/05 03:37:16;;;;;;;24.20;13.67;;;0.60;99.90;;;;;;6204649;23;20542;-75
2022/03/05 03:39:43;;;;;;;26.50;14.17;;;0.60;99.90;;;;;;6207045;23;20181;-75
2022/03/05 03:42:10;;;;;;;23.57;13.50;;;0.50;99.90;;;;;;6206356;23;20174;-76
2022/03/05 03:44:37;;;;;;;24.90;13.80;;;0.50;99.90;;;;;;6204741;23;20558;-75
2022/03/05 03:47:05;;;;;;;22.87;12.50;;;0.50;99.90;;;;;;6206319;23;20709;-74
2022/03/05 03:49:32;;;;;;;26.20;13.53;;;0.50;99.90;;;;;;6206215;23;20197;-75
2022/03/05 03:51:59;;;;;;;24.93;14.17;;;0.40;99.90;;;;;;6205310;23;20186;-75
2022/03/05 03:54:27;;;;;;;29.10;13.77;;;0.40;99.90;;;;;;6205333;23;20197;-75
2022/03/05 03:56:53;;;;;;;30.87;14.53;;;0.40;99.90;;;;;;6206340;23;20281;-75
2022/03/05 03:59:20;;;;;;;27.27;13.27;;;0.40;99.90;;;;;;6205052;23;20173;-74
2022/03/05 04:01:47;;;;;;;24.93;13.43;;;0.40;99.90;;;;;;6206390;23;20177;-75
2022/03/05 04:04:15;;;;;;;24.17;13.03;;;0.40;99.90;;;;;;6205905;23;20182;-75
2022/03/05 04:09:26;;;;;;;28.07;14.27;;;0.30;99.90;;;;;;6205269;23;20169;-75
2022/03/05 04:11:53;;;;;;;29.00;15.20;;;0.30;99.90;;;;;;6206291;23;20181;-74
2022/03/05 04:14:20;;;;;;;29.60;15.07;;;0.30;99.90;;;;;;6204974;23;20255;-75
2022/03/05 04:16:47;;;;;;;28.93;15.67;;;0.30;99.90;;;;;;6206235;23;20178;-76
2022/03/05 04:19:15;;;;;;;28.07;15.30;;;0.30;99.90;;;;;;6204999;23;20181;-75
2022/03/05 04:21:42;;;;;;;32.03;15.90;;;0.30;99.90;;;;;;6206023;23;20208;-75
2022/03/05 04:24:08;;;;;;;26.93;15.70;;;0.30;99.90;;;;;;6206179;23;20252;-75
2022/03/05 04:26:35;;;;;;;26.20;14.17;;;0.30;99.90;;;;;;6204805;23;20226;-75
2022/03/05 04:29:02;;;;;;;30.13;15.47;;;0.30;99.90;;;;;;6205185;23;20181;-75
2022/03/05 04:31:29;;;;;;;29.70;15.17;;;0.20;99.90;;;;;;6205325;23;20170;-74
2022/03/05 04:33:55;;;;;;;27.07;15.07;;;0.20;99.90;;;;;;6205242;23;20208;-75
2022/03/05 04:36:23;;;;;;;25.90;14.57;;;0.20;99.90;;;;;;6205537;23;20178;-75
2022/03/05 04:38:50;;;;;;;27.97;15.47;;;0.10;99.90;;;;;;6204949;23;20228;-74
2022/03/05 04:41:17;;;;;;;28.63;16.20;;;0.10;99.90;;;;;;6205191;23;20595;-75
2022/03/05 04:43:44;;;;;;;27.77;15.93;;;0.10;99.90;;;;;;6206308;23;20613;-75
2022/03/05 04:46:12;;;;;;;30.60;15.70;;;0.10;99.90;;;;;;6206205;23;20178;-75
2022/03/05 04:48:38;;;;;;;33.90;16.87;;;0.10;99.90;;;;;;6205680;23;20868;-74
2022/03/05 04:51:05;;;;;;;29.60;15.83;;;0.00;99.90;;;;;;6205467;23;20185;-74
2022/03/05 04:53:33;;;;;;;29.67;16.50;;;0.10;99.90;;;;;;6204627;23;20641;-74
2022/03/05 04:56:00;;;;;;;36.33;16.53;;;0.10;99.90;;;;;;6205511;23;20177;-73
2022/03/05 04:58:27;;;;;;;33.57;17.13;;;0.10;99.90;;;;;;6204856;23;20177;-74
2022/03/05 05:00:54;;;;;;;33.67;17.93;;;0.10;99.90;;;;;;6205070;23;20178;-74
2022/03/05 05:03:20;;;;;;;31.53;16.97;;;0.10;99.90;;;;;;6205202;23;20190;-73
2022/03/05 05:05:47;;;;;;;33.57;18.07;;;0.10;99.90;;;;;;6205271;23;20185;-74
2022/03/05 05:08:14;;;;;;;32.60;17.43;;;0.20;99.90;;;;;;6204543;23;20170;-76
2022/03/05 05:10:42;;;;;;;33.63;17.53;;;0.20;99.90;;;;;;6205215;23;20181;-74
2022/03/05 05:13:09;;;;;;;31.10;17.40;;;0.10;99.90;;;;;;6205373;23;20205;-73
2022/03/05 05:15:35;;;;;;;30.77;17.33;;;0.10;99.90;;;;;;6204173;23;20181;-75
2022/03/05 05:18:02;;;;;;;37.90;18.83;;;0.10;99.90;;;;;;6205857;23;20184;-75
2022/03/05 05:20:30;;;;;;;36.00;18.17;;;0.10;99.90;;;;;;6203742;23;20171;-73
2022/03/05 05:22:56;;;;;;;36.43;17.90;;;0.20;99.90;;;;;;6204489;23;20209;-74
2022/03/05 05:25:23;;;;;;;32.17;18.20;;;0.20;99.90;;;;;;6205043;23;20582;-74
2022/03/05 05:27:51;;;;;;;33.70;17.80;;;0.10;99.90;;;;;;6205364;23;20185;-74
2022/03/05 05:30:18;;;;;;;43.53;20.67;;;0.10;99.90;;;;;;6203760;23;20589;-75
2022/03/05 05:32:45;;;;;;;36.80;18.97;;;0.10;99.90;;;;;;6204571;23;20287;-74
2022/03/05 05:35:12;;;;;;;40.40;19.47;;;0.00;99.90;;;;;;6205285;23;20205;-75
2022/03/05 05:37:39;;;;;;;35.83;17.97;;;0.00;99.90;;;;;;6203512;23;20177;-75
2022/03/05 05:40:07;;;;;;;38.70;19.50;;;0.00;99.90;;;;;;6204785;23;20175;-74
2022/03/05 05:42:33;;;;;;;37.17;18.37;;;0.00;99.90;;;;;;6204135;23;20170;-74
2022/03/05 05:45:02;;;;;;;38.73;18.23;;;0.00;99.90;;;;;;6203969;23;20228;-74
2022/03/05 05:47:29;;;;;;;36.07;18.83;;;0.00;99.90;;;;;;6204836;23;20216;-73
2022/03/05 05:49:56;;;;;;;39.10;17.90;;;0.00;99.90;;;;;;6204842;23;20559;-73
2022/03/05 05:52:23;;;;;;;33.83;18.70;;;0.00;99.90;;;;;;6204941;23;20174;-73
2022/03/05 05:54:49;;;;;;;36.40;19.13;;;0.00;99.90;;;;;;6205171;23;20313;-74
2022/03/05 05:57:16;;;;;;;35.90;18.57;;;0.00;99.90;;;;;;6204244;23;20180;-76
2022/03/05 05:59:43;;;;;;;34.40;17.37;;;0.00;99.90;;;;;;6205451;23;20256;-75
2022/03/05 06:02:11;;;;;;;33.80;17.50;;;0.00;99.90;;;;;;6205432;23;20441;-73
2022/03/05 06:04:38;;;;;;;40.10;17.20;;;0.00;99.90;;;;;;6204167;23;20185;-73
2022/03/05 06:07:05;;;;;;;35.47;18.23;;;0.00;99.90;;;;;;6204975;23;20166;-74
2022/03/05 06:09:32;;;;;;;39.00;19.50;;;0.00;99.90;;;;;;6203114;23;20181;-74
2022/03/05 06:11:58;;;;;;;37.30;18.63;;;0.00;99.90;;;;;;6204421;23;20638;-74
2022/03/05 06:14:25;;;;;;;40.40;19.50;;;0.00;99.90;;;;;;6204777;23;20202;-75
2022/03/05 06:16:52;;;;;;;36.63;18.43;;;0.00;99.90;;;;;;6205062;23;20170;-75
2022/03/05 06:19:20;;;;;;;34.63;16.63;;;0.00;99.90;;;;;;6203243;23;20642;-75
2022/03/05 06:21:47;;;;;;;36.70;18.37;;;0.00;99.90;;;;;;6203228;23;20206;-74
2022/03/05 06:24:14;;;;;;;36.33;18.30;;;0.00;99.90;;;;;;6204914;23;20194;-74
2022/03/05 06:26:40;;;;;;;38.80;18.63;;;0.00;99.90;;;;;;6204365;23;20181;-74
2022/03/05 06:29:07;;;;;;;33.40;17.97;;;-0.10;99.90;;;;;;6204898;23;20431;-73
2022/03/05 06:31:34;;;;;;;37.37;19.53;;;-0.10;99.90;;;;;;6205039;23;20178;-72
2022/03/05 06:34:01;;;;;;;35.10;17.93;;;-0.10;99.90;;;;;;6206017;23;20198;-74
2022/03/05 06:36:29;;;;;;;39.20;19.90;;;-0.10;99.90;;;;;;6206197;23;20178;-73
2022/03/05 06:38:56;;;;;;;38.93;20.13;;;-0.10;99.90;;;;;;6206382;23;20861;-74
2022/03/05 06:41:23;;;;;;;36.37;18.70;;;-0.10;99.90;;;;;;6205123;23;20181;-74
2022/03/05 06:43:50;;;;;;;33.07;18.10;;;-0.10;99.90;;;;;;6206354;23;20245;-74
2022/03/05 06:46:16;;;;;;;37.27;18.37;;;-0.10;99.90;;;;;;6205283;23;20182;-75
2022/03/05 06:48:46;;;;;;;41.03;19.93;;;-0.10;99.90;;;;;;6203967;23;20177;-74
2022/03/05 06:51:13;;;;;;;37.50;19.23;;;0.00;99.90;;;;;;6206182;23;20236;-75
2022/03/05 06:53:41;;;;;;;36.57;18.90;;;-0.10;99.90;;;;;;6206337;23;20194;-74
2022/03/05 06:56:08;;;;;;;37.00;18.73;;;-0.10;99.90;;;;;;6206848;23;20375;-73
2022/03/05 06:58:34;;;;;;;33.80;18.57;;;0.00;99.90;;;;;;6206291;23;20178;-73
2022/03/05 07:01:01;;;;;;;36.00;17.57;;;0.00;99.90;;;;;;6206045;23;20178;-76
2022/03/05 07:03:28;;;;;;;38.73;18.70;;;0.00;99.90;;;;;;6206074;23;20583;-74
2022/03/05 07:05:55;;;;;;;37.80;18.57;;;0.10;99.90;;;;;;6206623;23;20791;-73
2022/03/05 07:08:21;;;;;;;37.87;18.17;;;0.10;99.90;;;;;;6204534;23;20171;-74
2022/03/05 07:10:49;;;;;;;38.23;17.70;;;0.10;99.90;;;;;;6206659;23;20174;-74
2022/03/05 07:13:16;;;;;;;34.13;17.57;;;0.10;99.90;;;;;;6205757;23;20201;-74
2022/03/05 07:15:43;;;;;;;36.30;18.13;;;0.10;99.90;;;;;;6205762;23;20284;-74
2022/03/05 07:18:10;;;;;;;37.80;19.27;;;0.10;99.90;;;;;;6205845;23;20178;-74
2022/03/05 07:20:36;;;;;;;35.83;17.83;;;0.10;99.90;;;;;;6206251;23;20182;-75
2022/03/05 07:23:04;;;;;;;35.70;18.17;;;0.10;99.90;;;;;;6205373;23;20484;-75
2022/03/05 07:25:36;;;;;;;33.77;17.63;;;0.10;99.90;;;;;;6205518;23;20591;-75
2022/03/05 07:28:04;;;;;;;34.37;17.50;;;0.20;99.90;;;;;;6206334;23;20574;-76
2022/03/05 07:30:31;;;;;;;36.33;18.07;;;0.20;99.90;;;;;;6205583;23;20174;-75
2022/03/05 07:32:57;;;;;;;36.83;17.63;;;0.30;99.90;;;;;;6206405;23;20174;-75
2022/03/05 07:35:24;;;;;;;36.07;18.57;;;0.30;99.90;;;;;;6205180;23;20198;-75
2022/03/05 07:37:51;;;;;;;30.77;16.97;;;0.30;99.90;;;;;;6205556;23;20178;-75
2022/03/05 07:40:18;;;;;;;41.53;19.80;;;0.40;99.90;;;;;;6206053;23;20178;-75
2022/03/05 07:42:45;;;;;;;33.50;18.17;;;0.40;99.90;;;;;;6205163;23;20182;-74
2022/03/05 07:45:13;;;;;;;37.43;19.80;;;0.40;99.90;;;;;;6205923;23;20174;-74
2022/03/05 07:47:41;;;;;;;34.10;17.67;;;0.50;99.90;;;;;;6206049;23;20178;-75
2022/03/05 07:50:09;;;;;;;38.90;19.07;;;0.50;99.90;;;;;;6205064;23;20188;-75
2022/03/05 07:52:36;;;;;;;37.10;17.60;;;0.50;99.90;;;;;;6205706;23;20178;-73
2022/03/05 07:55:06;;;;;;;35.63;18.30;;;0.50;99.90;;;;;;6205747;23;20511;-75
2022/03/05 07:57:33;;;;;;;36.10;19.70;;;0.60;99.90;;;;;;6203748;23;20331;-74
2022/03/05 08:00:00;;;;;;;39.37;19.20;;;0.60;99.90;;;;;;6206663;23;20178;-73
2022/03/05 08:02:28;;;;;;;42.10;19.70;;;0.70;99.90;;;;;;6205859;23;20197;-73
2022/03/05 08:04:55;;;;;;;40.10;20.10;;;0.70;99.90;;;;;;6205708;23;20174;-76
2022/03/05 08:07:23;;;;;;;38.43;20.10;;;0.80;99.90;;;;;;6204683;23;20173;-75
2022/03/05 08:09:50;;;;;;;38.30;18.67;;;0.80;99.90;;;;;;6205395;23;20188;-75
2022/03/05 08:12:16;;;;;;;38.13;19.50;;;0.90;99.90;;;;;;6205034;23;20185;-76
2022/03/05 08:14:44;;;;;;;39.10;19.13;;;0.90;99.90;;;;;;6206191;23;20193;-74
2022/03/05 08:19:53;;;;;;;37.80;20.33;;;1.00;99.90;;;;;;6093162;23;20174;-74
2022/03/05 08:22:20;;;;;;;37.10;19.50;;;1.00;99.90;;;;;;6205372;23;20457;-74
2022/03/05 08:24:47;;;;;;;41.10;20.73;;;1.00;99.90;;;;;;6205519;23;20205;-75
2022/03/05 08:27:14;;;;;;;40.13;19.87;;;1.10;99.90;;;;;;6204715;23;20346;-76
2022/03/05 08:29:41;;;;;;;41.43;20.27;;;1.10;99.90;;;;;;6206087;23;20178;-75
2022/03/05 08:32:08;;;;;;;38.20;19.47;;;1.20;99.90;;;;;;6204687;23;20177;-75
2022/03/05 08:34:35;;;;;;;37.17;19.33;;;1.20;99.90;;;;;;6201212;23;20831;-76
2022/03/05 08:37:04;;;;;;;36.93;20.30;;;1.30;99.90;;;;;;6202962;23;20174;-77
2022/03/05 08:39:31;;;;;;;35.60;19.07;;;1.30;99.90;;;;;;6205048;23;20185;-76
2022/03/05 08:41:57;;;;;;;40.60;19.30;;;1.40;99.90;;;;;;6205642;23;20182;-75
2022/03/05 08:44:24;;;;;;;38.43;20.23;;;1.50;99.90;;;;;;6205141;23;20170;-75
2022/03/05 08:46:51;;;;;;;41.33;20.87;;;1.60;99.90;;;;;;6205179;23;20177;-74
2022/03/05 08:49:17;;;;;;;38.17;19.57;;;1.60;99.90;;;;;;6204838;23;20197;-75
2022/03/05 08:51:44;;;;;;;39.20;20.20;;;1.70;99.90;;;;;;6205239;23;20178;-75
2022/03/05 08:54:12;;;;;;;36.87;20.17;;;1.80;99.90;;;;;;6203770;23;20182;-75
2022/03/05 08:56:39;;;;;;;41.43;20.80;;;1.80;99.90;;;;;;6205240;23;20178;-75
2022/03/05 08:59:06;;;;;;;34.80;18.30;;;1.80;99.90;;;;;;6205865;23;20174;-74
2022/03/05 09:01:32;;;;;;;36.87;19.77;;;1.90;99.90;;;;;;6204726;23;20612;-75
2022/03/05 09:03:59;;;;;;;35.53;20.53;;;2.00;99.90;;;;;;6205315;23;20517;-75
2022/03/05 09:06:26;;;;;;;40.37;19.13;;;2.00;99.90;;;;;;6204960;23;20189;-76
2022/03/05 09:08:53;;;;;;;41.43;19.90;;;2.10;99.90;;;;;;6204830;23;20178;-74
2022/03/05 09:11:21;;;;;;;36.70;20.20;;;2.20;99.90;;;;;;6205158;23;20185;-75
2022/03/05 09:13:48;;;;;;;39.13;19.20;;;2.30;99.90;;;;;;6204538;23;20186;-75
2022/03/05 09:16:15;;;;;;;37.13;18.93;;;2.40;99.90;;;;;;6204428;23;20202;-75
2022/03/05 09:18:42;;;;;;;37.67;19.20;;;2.40;99.90;;;;;;6205783;23;20185;-74
2022/03/05 09:21:09;;;;;;;41.00;19.97;;;2.50;99.90;;;;;;6204527;23;20237;-75
2022/03/05 09:23:36;;;;;;;36.73;19.53;;;2.60;99.90;;;;;;6205249;23;20198;-75
2022/03/05 09:26:03;;;;;;;35.90;17.80;;;2.70;99.90;;;;;;6204572;23;20180;-75
2022/03/05 09:28:31;;;;;;;39.57;20.13;;;2.70;99.90;;;;;;6204064;23;20181;-75
2022/03/05 09:30:58;;;;;;;37.97;20.40;;;2.80;99.90;;;;;;6206059;23;20184;-76
2022/03/05 09:33:25;;;;;;;35.33;17.77;;;2.90;99.90;;;;;;6204572;23;20229;-75
2022/03/05 09:35:54;;;;;;;36.10;18.80;;;3.00;99.90;;;;;;6204225;23;20200;-75
2022/03/05 09:38:21;;;;;;;36.87;17.83;;;3.00;99.90;;;;;;6205322;23;20178;-75
2022/03/05 09:40:47;;;;;;;32.43;17.50;;;3.10;99.90;;;;;;6205014;23;20170;-76
2022/03/05 09:43:14;;;;;;;35.10;19.80;;;3.20;99.90;;;;;;6203916;23;20181;-74
2022/03/05 09:45:45;;;;;;;36.77;19.60;;;3.30;99.90;;;;;;6205094;23;20185;-75
2022/03/05 09:48:15;;;;;;;35.70;18.83;;;3.40;99.90;;;;;;6205547;23;20182;-75
2022/03/05 09:50:42;;;;;;;35.67;18.37;;;3.50;99.90;;;;;;6204710;23;20181;-77
2022/03/05 09:53:09;;;;;;;33.77;17.93;;;3.60;99.90;;;;;;6204955;23;20170;-76
2022/03/05 09:55:36;;;;;;;34.87;20.23;;;3.70;99.90;;;;;;6204729;23;20225;-75
2022/03/05 09:58:03;;;;;;;31.10;17.73;;;3.80;99.90;;;;;;6204077;23;20178;-75
2022/03/05 10:00:31;;;;;;;32.87;17.27;;;3.90;99.90;;;;;;6204925;23;20181;-75
2022/03/05 10:02:59;;;;;;;39.23;19.23;;;4.10;99.90;;;;;;6205105;23;20264;-76
2022/03/05 10:05:28;;;;;;;30.57;17.10;;;4.20;99.90;;;;;;6203862;23;20166;-75
2022/03/05 10:08:07;;;;;;;33.23;18.57;;;4.30;99.90;;;;;;6207138;23;20174;-76
2022/03/05 10:10:44;;;;;;;31.80;17.53;;;4.40;99.90;;;;;;6205913;23;20166;-76
2022/03/05 10:13:21;;;;;;;32.87;18.33;;;4.60;99.90;;;;;;6206330;23;20170;-75
2022/03/05 10:15:49;;;;;;;33.97;18.47;;;4.70;99.90;;;;;;6206391;23;20243;-75
2022/03/05 10:18:17;;;;;;;32.73;17.53;;;4.80;99.90;;;;;;6205755;23;20185;-75
2022/03/05 10:20:48;;;;;;;35.97;19.17;;;4.90;99.90;;;;;;6207362;23;20209;-74
2022/03/05 10:23:15;;;;;;;36.70;20.53;;;4.90;99.90;;;;;;6206591;23;20517;-74
2022/03/05 10:25:45;;;;;;;31.10;17.77;;;5.00;99.90;;;;;;6205458;23;20174;-77
2022/03/05 10:28:14;;;;;;;31.50;17.13;;;5.10;99.90;;;;;;6204282;23;20517;-75
2022/03/05 10:30:43;;;;;;;34.00;17.87;;;5.20;99.90;;;;;;6206625;23;20441;-74
2022/03/05 10:33:25;;;;;;;27.73;17.20;;;5.20;99.90;;;;;;6205233;23;20166;-75
2022/03/05 10:35:52;;;;;;;30.53;17.13;;;5.40;99.90;;;;;;6206120;23;20305;-75
2022/03/05 10:38:19;;;;;;;34.07;19.50;;;5.50;99.90;;;;;;6206523;23;20174;-74
2022/03/05 10:40:54;;;;;;;33.30;17.60;;;5.50;99.90;;;;;;6205961;23;20174;-75
2022/03/05 10:43:21;;;;;;;32.07;18.47;;;5.70;99.90;;;;;;6205462;23;20193;-75
2022/03/05 10:45:50;;;;;;;33.93;17.83;;;5.80;99.90;;;;;;6205892;23;20177;-76
2022/03/05 10:48:23;;;;;;;35.10;19.73;;;5.90;99.90;;;;;;6206514;23;20640;-76
2022/03/05 10:50:56;;;;;;;30.70;17.17;;;6.10;99.90;;;;;;6206231;23;20861;-74
2022/03/05 10:53:36;;;;;;;33.30;18.93;;;6.00;99.90;;;;;;6206622;23;20170;-74
2022/03/05 10:56:25;;;;;;;32.43;17.87;;;6.10;99.90;;;;;;6206387;23;20197;-75
2022/03/05 10:59:03;;;;;;;29.70;17.77;;;6.20;99.90;;;;;;6206001;23;20532;-75
2022/03/05 11:01:31;;;;;;;32.27;18.30;;;6.40;99.90;;;;;;6205600;23;20166;-74
2022/03/05 11:03:58;;;;;;;29.27;17.70;;;6.40;99.90;;;;;;6206551;23;20606;-75
2022/03/05 11:06:27;;;;;;;31.80;18.30;;;6.50;99.90;;;;;;6205637;23;20170;-75
2022/03/05 11:08:54;;;;;;;35.50;18.30;;;6.60;99.90;;;;;;6206165;23;20178;-75
2022/03/05 11:11:22;;;;;;;32.63;18.07;;;6.50;99.90;;;;;;6206480;23;20185;-74
2022/03/05 11:13:49;;;;;;;28.53;17.20;;;6.40;99.90;;;;;;6206091;23;20202;-75
2022/03/05 11:16:16;;;;;;;27.37;16.63;;;6.40;99.90;;;;;;6207074;23;20569;-75
2022/03/05 11:18:43;;;;;;;36.13;18.93;;;6.50;99.90;;;;;;6206483;23;20512;-75
2022/03/05 11:21:11;;;;;;;28.80;17.07;;;6.60;99.90;;;;;;6205581;23;20205;-75
2022/03/05 11:23:41;;;;;;;29.80;18.00;;;6.70;99.90;;;;;;6205864;23;21114;-75
2022/03/05 11:26:09;;;;;;;32.77;17.47;;;6.80;99.90;;;;;;6206810;23;20174;-76
2022/03/05 11:28:37;;;;;;;29.03;18.10;;;6.90;99.90;;;;;;6205909;23;20179;-77
2022/03/05 11:31:16;;;;;;;29.13;16.77;;;6.90;99.90;;;;;;6206474;23;20178;-75
2022/03/05 11:33:44;;;;;;;29.03;15.87;;;7.10;99.90;;;;;;6205871;23;20170;-74
2022/03/05 11:36:28;;;;;;;30.70;18.60;;;7.00;99.90;;;;;;6205211;23;20257;-76
2022/03/05 11:39:15;;;;;;;29.30;17.27;;;7.20;99.90;;;;;;6201258;23;20545;-76
2022/03/05 11:41:50;;;;;;;32.50;19.07;;;7.40;99.90;;;;;;6206377;23;20555;-77
2022/03/05 11:44:19;;;;;;;31.07;18.47;;;7.50;99.90;;;;;;6205714;23;20879;-76
2022/03/05 11:46:47;;;;;;;33.97;18.73;;;7.50;99.90;;;;;;6206010;23;20189;-77
2022/03/05 11:49:14;;;;;;;31.60;19.03;;;7.70;99.90;;;;;;6205876;23;20184;-76
2022/03/05 11:51:55;;;;;;;33.90;18.53;;;7.90;99.90;;;;;;6205903;23;20170;-77
2022/03/05 11:54:24;;;;;;;29.83;17.40;;;7.90;99.90;;;;;;6206191;23;20173;-77
2022/03/05 11:57:03;;;;;;;27.97;17.20;;;8.00;99.90;;;;;;6205573;23;20653;-76
2022/03/05 11:59:31;;;;;;;33.47;17.93;;;8.00;99.90;;;;;;6206401;23;20217;-76
2022/03/05 12:01:57;;;;;;;35.10;16.77;;;8.00;99.90;;;;;;6206619;23;20224;-75
2022/03/05 12:04:28;;;;;;;30.43;17.60;;;7.90;99.90;;;;;;6204999;23;20178;-74
2022/03/05 12:07:01;;;;;;;29.30;18.00;;;7.80;99.90;;;;;;6205668;23;20165;-76
2022/03/05 12:09:37;;;;;;;32.17;17.77;;;7.70;99.90;;;;;;6205372;23;20170;-75
2022/03/05 12:12:06;;;;;;;29.27;17.30;;;7.80;99.90;;;;;;6206754;23;20162;-75
2022/03/05 12:15:21;;;;;;;30.23;16.60;;;7.80;99.90;;;;;;6205462;23;20177;-77
2022/03/05 12:17:50;;;;;;;31.27;17.23;;;7.80;99.90;;;;;;6205704;23;20174;-76
2022/03/05 12:20:20;;;;;;;31.07;18.70;;;7.90;99.90;;;;;;6205722;23;20205;-76
2022/03/05 12:22:48;;;;;;;27.90;17.97;;;7.80;99.90;;;;;;6204970;23;20217;-75
2022/03/05 12:25:17;;;;;;;30.30;18.20;;;7.80;99.90;;;;;;6204675;23;20170;-76
2022/03/05 12:27:50;;;;;;;31.53;17.27;;;7.90;99.90;;;;;;6205794;23;20174;-79
2022/03/05 12:30:17;;;;;;;31.87;17.93;;;8.00;99.90;;;;;;6205321;23;20170;-75
2022/03/05 12:32:47;;;;;;;32.03;18.23;;;8.10;99.90;;;;;;6204418;23;20181;-77
2022/03/05 12:35:17;;;;;;;33.20;18.40;;;8.20;99.90;;;;;;6205346;23;20181;-76
2022/03/05 12:37:44;;;;;;;32.43;19.53;;;8.00;99.90;;;;;;6205234;23;20178;-77
2022/03/05 12:40:12;;;;;;;31.13;18.40;;;8.10;99.90;;;;;;6204396;23;20575;-75
2022/03/05 12:42:42;;;;;;;31.40;18.17;;;8.10;99.90;;;;;;6205491;23;20180;-75
2022/03/05 12:45:15;;;;;;;32.00;18.37;;;8.00;99.90;;;;;;6205870;23;20166;-74